Map

Track Data

SID SEASON NUMBER BASIN SUBBASIN NAME ISO_TIME NATURE LAT LON WMO_WIND WMO_PRES WMO_AGENCY TRACK_TYPE DIST2LAND LANDFALL IFLAG USA_AGENCY USA_ATCF_ID USA_LAT USA_LON USA_RECORD USA_STATUS USA_WIND USA_PRES USA_SSHS USA_R34_NE USA_R34_SE USA_R34_SW USA_R34_NW USA_R50_NE USA_R50_SE USA_R50_SW USA_R50_NW USA_R64_NE USA_R64_SE USA_R64_SW USA_R64_NW USA_POCI USA_ROCI USA_RMW USA_EYE TOKYO_LAT TOKYO_LON TOKYO_GRADE TOKYO_WIND TOKYO_PRES TOKYO_R50_DIR TOKYO_R50_LONG TOKYO_R50_SHORT TOKYO_R30_DIR TOKYO_R30_LONG TOKYO_R30_SHORT TOKYO_LAND CMA_LAT CMA_LON CMA_CAT CMA_WIND CMA_PRES HKO_LAT HKO_LON HKO_CAT HKO_WIND HKO_PRES NEWDELHI_LAT NEWDELHI_LON NEWDELHI_GRADE NEWDELHI_WIND NEWDELHI_PRES NEWDELHI_CI NEWDELHI_DP NEWDELHI_POCI REUNION_LAT REUNION_LON REUNION_TYPE REUNION_WIND REUNION_PRES REUNION_TNUM REUNION_CI REUNION_RMW REUNION_R34_NE REUNION_R34_SE REUNION_R34_SW REUNION_R34_NW REUNION_R50_NE REUNION_R50_SE REUNION_R50_SW REUNION_R50_NW REUNION_R64_NE REUNION_R64_SE REUNION_R64_SW REUNION_R64_NW BOM_LAT BOM_LON BOM_TYPE BOM_WIND BOM_PRES BOM_TNUM BOM_CI BOM_RMW BOM_R34_NE BOM_R34_SE BOM_R34_SW BOM_R34_NW BOM_R50_NE BOM_R50_SE BOM_R50_SW BOM_R50_NW BOM_R64_NE BOM_R64_SE BOM_R64_SW BOM_R64_NW BOM_ROCI BOM_POCI BOM_EYE BOM_POS_METHOD BOM_PRES_METHOD NADI_LAT NADI_LON NADI_CAT NADI_WIND NADI_PRES WELLINGTON_LAT WELLINGTON_LON WELLINGTON_WIND WELLINGTON_PRES DS824_LAT DS824_LON DS824_STAGE DS824_WIND DS824_PRES TD9636_LAT TD9636_LON TD9636_STAGE TD9636_WIND TD9636_PRES TD9635_LAT TD9635_LON TD9635_WIND TD9635_PRES TD9635_ROCI NEUMANN_LAT NEUMANN_LON NEUMANN_CLASS NEUMANN_WIND NEUMANN_PRES MLC_LAT MLC_LON MLC_CLASS MLC_WIND MLC_PRES USA_GUST BOM_GUST BOM_GUST_PER REUNION_GUST REUNION_GUST_PER USA_SEAHGT USA_SEARAD_NE USA_SEARAD_SE USA_SEARAD_SW USA_SEARAD_NW STORM_SPEED STORM_DIR
1953277N23279 1953 66 NA NA NOT_NAMED 1953-10-03 18:00:00 TS 22.7000 -81.3000 30 hurdat_atl main 0 0 O_____________ hurdat_atl AL111953 22.7000 -81.3000 TD 30 -1 7 72
1953277N23279 1953 66 NA NA NOT_NAMED 1953-10-03 21:00:00 TS 22.8027 -80.9602 main 0 0 P_____________ AL111953 22.8027 -80.9602 TD 32 -1 6 70
1953277N23279 1953 66 NA NA NOT_NAMED 1953-10-04 00:00:00 TS 22.9000 -80.7000 35 hurdat_atl main 0 0 O_____________ hurdat_atl AL111953 22.9000 -80.7000 TS 35 0 4 62
1953277N23279 1953 66 NA NA NOT_NAMED 1953-10-04 03:00:00 TS 22.9924 -80.5699 main 0 0 P_____________ AL111953 22.9924 -80.5699 TS 35 0 3 43
1953277N23279 1953 66 NA NA NOT_NAMED 1953-10-04 06:00:00 TS 23.1000 -80.5000 35 hurdat_atl main 11 11 O_____________ hurdat_atl AL111953 23.1000 -80.5000 TS 35 0 3 36
1953277N23279 1953 66 NA NA NOT_NAMED 1953-10-04 09:00:00 TS 23.1975 -80.4073 main 24 24 P_____________ AL111953 23.1975 -80.4073 TS 35 0 4 31
1953277N23279 1953 66 NA NA NOT_NAMED 1953-10-04 12:00:00 TS 23.4000 -80.3000 35 hurdat_atl main 49 49 O_____________ hurdat_atl AL111953 23.4000 -80.3000 TS 35 0 6 21
1953277N23279 1953 66 NA NA NOT_NAMED 1953-10-04 15:00:00 TS 23.7975 -80.1576 main 94 94 P_____________ AL111953 23.7975 -80.1576 TS 35 0 9 17
1953277N23279 1953 66 NA NA NOT_NAMED 1953-10-04 18:00:00 TS 24.3000 -80.0000 35 hurdat_atl main 98 67 O_____________ hurdat_atl AL111953 24.3000 -80.0000 TS 35 0 10 14
1953277N23279 1953 66 NA NA NOT_NAMED 1953-10-04 21:00:00 TS 24.7774 -79.8794 main 60 55 P_____________ AL111953 24.7774 -79.8794 TS 35 0 10 15
1953277N23279 1953 66 NA NA NOT_NAMED 1953-10-05 00:00:00 TS 25.3000 -79.7000 35 hurdat_atl main 64 54 O_____________ hurdat_atl AL111953 25.3000 -79.7000 TS 35 0 12 22
1953277N23279 1953 66 NA NA NOT_NAMED 1953-10-05 03:00:00 TS 25.8776 -79.3801 main 69 69 P_____________ AL111953 25.8776 -79.3801 TS 35 0 14 28
1953277N23279 1953 66 NA NA NOT_NAMED 1953-10-05 06:00:00 TS 26.5000 -79.0000 35 hurdat_atl main 104 101 O_____________ hurdat_atl AL111953 26.5000 -79.0000 TS 35 0 14 27
1953277N23279 1953 66 NA NA NOT_NAMED 1953-10-05 09:00:00 TS 27.1424 -78.6497 main 142 142 P_____________ AL111953 27.1424 -78.6497 TS 35 0 14 26
1953277N23279 1953 66 NA NA NOT_NAMED 1953-10-05 12:00:00 TS 27.8000 -78.3000 35 hurdat_atl main 198 198 O_____________ hurdat_atl AL111953 27.8000 -78.3000 TS 35 0 14 25
1953277N23279 1953 66 NA NA NOT_NAMED 1953-10-05 15:00:00 TS 28.4272 -77.9713 main 244 244 P_____________ AL111953 28.4272 -77.9713 TS 35 0 14 25
1953277N23279 1953 66 NA NA NOT_NAMED 1953-10-05 18:00:00 TS 29.1000 -77.6000 35 hurdat_atl main 290 290 O_____________ hurdat_atl AL111953 29.1000 -77.6000 TS 35 0 16 28
1953277N23279 1953 66 NA NA NOT_NAMED 1953-10-05 21:00:00 TS 29.7949 -77.1427 main 360 360 P_____________ AL111953 29.7949 -77.1427 TS 37 0 18 28
1953277N23279 1953 66 NA NA NOT_NAMED 1953-10-06 00:00:00 TS 30.7000 -76.6000 40 hurdat_atl main 368 284 O_____________ hurdat_atl AL111953 30.7000 -76.6000 TS 40 0 23 23
1953277N23279 1953 66 NA NA NOT_NAMED 1953-10-06 03:00:00 TS 31.9504 -76.0792 main 276 186 P_____________ AL111953 31.9504 -76.0792 TS 40 0 29 22
1953277N23279 1953 66 NA NA NOT_NAMED 1953-10-06 06:00:00 TS 33.4000 -75.3000 40 hurdat_atl main 182 162 O_____________ hurdat_atl AL111953 33.4000 -75.3000 TS 40 0 34 30
1953277N23279 1953 66 NA NA NOT_NAMED 1953-10-06 09:00:00 TS 34.8647 -74.0649 main 161 161 P_____________ AL111953 34.8647 -74.0649 TS 42 0 37 38
1953277N23279 1953 66 NA NA NOT_NAMED 1953-10-06 12:00:00 ET 36.3000 -72.5000 45 hurdat_atl main 274 274 O_____________ hurdat_atl AL111953 36.3000 -72.5000 EX 45 -4 37 43
1953277N23279 1953 66 NA NA NOT_NAMED 1953-10-06 15:00:00 ET 37.5596 -70.8949 main 362 336 P_____________ AL111953 37.5596 -70.8949 EX 47 -4 37 48
1953277N23279 1953 66 NA NA NOT_NAMED 1953-10-06 18:00:00 ET 38.8000 -69.0000 50 hurdat_atl main 333 303 O_____________ hurdat_atl AL111953 38.8000 -69.0000 EX 50 -4 41 52
1953277N23279 1953 66 NA NA NOT_NAMED 1953-10-06 21:00:00 ET 40.0709 -66.7271 main 328 247 P_____________ AL111953 40.0709 -66.7271 EX 52 -4 46 54
1953277N23279 1953 66 NA NA NOT_NAMED 1953-10-07 00:00:00 ET 41.5000 -64.1000 55 hurdat_atl main 243 205 O_____________ hurdat_atl AL111953 41.5000 -64.1000 EX 55 -4 53 53
1953277N23279 1953 66 NA NA NOT_NAMED 1953-10-07 03:00:00 ET 43.2517 -61.0080 main 202 174 P_____________ AL111953 43.2517 -61.0080 EX 55 -4 56 52
1953277N23279 1953 66 NA NA NOT_NAMED 1953-10-07 06:00:00 ET 45.0000 -58.0000 55 hurdat_atl main 185 36 O_____________ hurdat_atl AL111953 45.0000 -58.0000 EX 55 -4 50 48
1953277N23279 1953 66 NA NA NOT_NAMED 1953-10-07 09:00:00 ET 46.5730 -55.7810 main 23 0 P_____________ AL111953 46.5730 -55.7810 EX 55 -4 40 45
1953277N23279 1953 66 NA NA NOT_NAMED 1953-10-07 12:00:00 ET 47.8000 -53.9000 55 hurdat_atl main 0 0 O_____________ hurdat_atl AL111953 47.8000 -53.9000 EX 55 -4 32 55
1953277N23279 1953 66 NA NA NOT_NAMED 1953-10-07 15:00:00 ET 48.4327 -51.8294 main 80 80 P_____________ AL111953 48.4327 -51.8294 EX 55 -4 28 69
1953277N23279 1953 66 NA NA NOT_NAMED 1953-10-07 18:00:00 ET 48.8000 -49.9000 55 hurdat_atl main 226 226 O_____________ hurdat_atl AL111953 48.8000 -49.9000 EX 55 -4 26 71
1953277N23279 1953 66 NA NA NOT_NAMED 1953-10-07 21:00:00 ET 49.2669 -48.1114 main 367 367 P_____________ AL111953 49.2669 -48.1114 EX 55 -4 24 66
1953277N23279 1953 66 NA NA NOT_NAMED 1953-10-08 00:00:00 ET 49.8000 -46.5000 55 hurdat_atl main 491 491 O_____________ hurdat_atl AL111953 49.8000 -46.5000 EX 55 -4 23 59
1953277N23279 1953 66 NA NA NOT_NAMED 1953-10-08 03:00:00 ET 50.4634 -45.0256 main 615 615 P_____________ AL111953 50.4634 -45.0256 EX 55 -4 23 53
1953277N23279 1953 66 NA NA NOT_NAMED 1953-10-08 06:00:00 ET 51.2000 -43.6000 55 hurdat_atl main 730 O_____________ hurdat_atl AL111953 51.2000 -43.6000 EX 55 -4 23 51

About IBTrACS Database

This database is a web-friendly format of International Best Track Archive for Climate Stewardship (IBTrACS), a global best track data archive curated by NOAA dating back to 1842.

Updated: 2021-10-08